createdAt,value
2023-01-19T00:00:23.864Z,6.87
2023-01-19T00:02:26.053Z,8.70
2023-01-19T00:04:27.786Z,7.47
2023-01-19T00:06:29.517Z,5.97
2023-01-19T00:08:31.170Z,6.10
2023-01-19T00:10:32.871Z,7.17
2023-01-19T00:12:34.637Z,6.57
2023-01-19T00:14:36.387Z,5.33
2023-01-19T00:16:41.201Z,6.73
2023-01-19T00:18:43.496Z,7.30
2023-01-19T00:20:46.599Z,7.97
2023-01-19T00:22:51.324Z,7.03
2023-01-19T00:24:53.013Z,7.47
2023-01-19T00:26:54.736Z,6.53
2023-01-19T00:28:56.620Z,6.77
2023-01-19T00:30:58.282Z,5.70
2023-01-19T00:33:00.570Z,5.90
2023-01-19T00:35:02.484Z,6.70
2023-01-19T00:37:04.566Z,5.23
2023-01-19T00:39:06.335Z,6.57
2023-01-19T00:41:08.075Z,6.23
2023-01-19T00:43:09.779Z,6.00
2023-01-19T00:45:12.676Z,6.90
2023-01-19T00:47:14.442Z,5.70
2023-01-19T00:49:16.186Z,5.50
2023-01-19T00:51:18.056Z,5.57
2023-01-19T00:53:19.754Z,6.00
2023-01-19T00:55:21.796Z,5.90
2023-01-19T00:57:23.830Z,6.53
2023-01-19T00:59:25.977Z,5.53
2023-01-19T01:01:45.381Z,6.20
2023-01-19T01:03:47.963Z,5.33
2023-01-19T01:05:49.691Z,5.47
2023-01-19T01:07:51.538Z,5.97
2023-01-19T01:09:53.302Z,4.73
2023-01-19T01:11:55.018Z,5.93
2023-01-19T01:13:56.757Z,6.97
2023-01-19T01:15:59.415Z,6.60
2023-01-19T01:18:01.068Z,6.87
2023-01-19T01:20:04.865Z,5.90
2023-01-19T01:22:06.598Z,6.97
2023-01-19T01:24:09.148Z,6.50
2023-01-19T01:26:10.867Z,7.47
2023-01-19T01:28:12.551Z,7.17
2023-01-19T01:30:15.169Z,8.37
2023-01-19T01:32:16.884Z,8.23
2023-01-19T01:34:18.783Z,7.20
2023-01-19T01:36:21.741Z,7.57
2023-01-19T01:38:23.473Z,6.83
2023-01-19T01:40:25.304Z,8.80
2023-01-19T01:42:29.042Z,8.30
2023-01-19T01:44:57.192Z,6.50
2023-01-19T01:46:59.038Z,8.70
2023-01-19T01:49:16.841Z,8.03
2023-01-19T01:51:46.344Z,8.10
2023-01-19T01:53:51.754Z,7.33
2023-01-19T01:55:53.645Z,7.27
2023-01-19T01:57:59.036Z,6.80
2023-01-19T02:00:00.932Z,6.47
2023-01-19T02:02:25.275Z,6.87
2023-01-19T02:04:27.049Z,7.10
2023-01-19T02:06:28.801Z,7.17
2023-01-19T02:09:02.603Z,7.07
2023-01-19T02:11:23.833Z,6.17
2023-01-19T02:13:26.285Z,7.17
2023-01-19T02:15:28.030Z,5.57
2023-01-19T02:17:29.817Z,7.93
2023-01-19T02:19:36.445Z,7.90
2023-01-19T02:21:54.911Z,6.77
2023-01-19T02:23:58.346Z,7.40
2023-01-19T02:26:00.916Z,7.83
2023-01-19T02:28:03.547Z,7.97
2023-01-19T02:30:06.205Z,7.50
2023-01-19T02:32:07.971Z,7.27
2023-01-19T02:34:12.541Z,6.53
2023-01-19T02:36:15.924Z,8.60
2023-01-19T02:38:19.274Z,7.57
2023-01-19T02:40:24.541Z,6.77
2023-01-19T02:42:28.353Z,6.97
2023-01-19T02:44:31.103Z,6.10
2023-01-19T02:46:33.257Z,6.10
2023-01-19T02:48:35.012Z,5.97
2023-01-19T02:50:38.512Z,6.80
2023-01-19T02:52:40.194Z,7.40
2023-01-19T02:54:46.012Z,6.87
2023-01-19T02:56:53.361Z,4.53
2023-01-19T02:59:14.167Z,5.57
2023-01-19T03:01:27.280Z,6.23
2023-01-19T03:03:33.278Z,5.80
2023-01-19T03:05:52.456Z,6.33
2023-01-19T03:08:29.498Z,5.13
2023-01-19T03:10:32.965Z,5.13
2023-01-19T03:13:12.044Z,5.80
2023-01-19T03:15:36.741Z,5.20
2023-01-19T03:17:38.753Z,5.43
2023-01-19T03:19:42.861Z,4.38
2023-01-19T03:21:48.342Z,5.57
2023-01-19T03:23:51.280Z,5.00
2023-01-19T03:25:53.331Z,5.38
2023-01-19T03:27:57.380Z,5.18
2023-01-19T03:30:06.813Z,5.03
2023-01-19T03:32:12.096Z,4.70
2023-01-19T03:34:15.151Z,4.63
2023-01-19T03:36:20.694Z,5.20
2023-01-19T03:38:25.977Z,4.32
2023-01-19T03:40:30.157Z,5.13
2023-01-19T03:42:32.446Z,4.47
2023-01-19T03:44:37.578Z,5.17
2023-01-19T03:46:39.841Z,6.50
2023-01-19T03:48:42.112Z,5.57
2023-01-19T03:50:43.820Z,6.87
2023-01-19T03:52:45.528Z,6.50
2023-01-19T03:54:48.303Z,7.13
2023-01-19T03:56:49.983Z,8.07
2023-01-19T03:58:52.177Z,8.83
2023-01-19T04:00:54.086Z,6.67
2023-01-19T04:02:55.900Z,7.40
2023-01-19T04:04:57.616Z,8.10
2023-01-19T04:06:59.349Z,7.50
2023-01-19T04:09:00.987Z,6.33
2023-01-19T04:11:03.139Z,6.73
2023-01-19T04:13:05.415Z,7.07
2023-01-19T04:15:07.689Z,6.57
2023-01-19T04:17:10.440Z,7.53
2023-01-19T04:19:12.417Z,5.93
2023-01-19T04:21:14.173Z,6.53
2023-01-19T04:23:15.817Z,8.23
2023-01-19T04:25:17.473Z,7.20
2023-01-19T04:27:19.663Z,5.97
2023-01-19T04:29:21.366Z,6.63
2023-01-19T04:31:23.445Z,6.83
2023-01-19T04:33:25.732Z,5.60
2023-01-19T04:35:27.483Z,7.63
2023-01-19T04:37:29.126Z,6.53
2023-01-19T04:39:30.829Z,5.43
2023-01-19T04:41:32.533Z,5.93
2023-01-19T04:43:34.272Z,6.67
2023-01-19T04:45:36.916Z,7.00
2023-01-19T04:47:38.600Z,6.23
2023-01-19T04:49:40.583Z,6.77
2023-01-19T04:51:42.209Z,7.97
2023-01-19T04:53:44.132Z,6.90
2023-01-19T04:55:46.761Z,6.67
2023-01-19T04:57:48.462Z,7.03
2023-01-19T04:59:50.207Z,5.20
2023-01-19T05:01:52.051Z,8.37
2023-01-19T05:03:53.826Z,6.50
2023-01-19T05:05:55.578Z,6.77
2023-01-19T05:07:57.167Z,6.80
2023-01-19T05:09:58.889Z,5.13
2023-01-19T05:12:00.547Z,6.90
2023-01-19T05:14:02.246Z,7.33
2023-01-19T05:16:04.179Z,6.47
2023-01-19T05:18:05.853Z,6.70
2023-01-19T05:20:09.666Z,6.57
2023-01-19T05:22:11.378Z,6.60
2023-01-19T05:24:13.152Z,6.90
2023-01-19T05:26:14.865Z,6.60
2023-01-19T05:28:17.181Z,7.30
2023-01-19T05:30:19.435Z,10.07
2023-01-19T05:32:21.130Z,7.23
2023-01-19T05:34:22.877Z,7.77
2023-01-19T05:36:24.633Z,6.97
2023-01-19T05:38:34.253Z,8.40
2023-01-19T05:40:36.852Z,7.93
2023-01-19T05:42:38.676Z,7.70
2023-01-19T05:44:40.555Z,7.33
2023-01-19T05:46:42.256Z,8.23
2023-01-19T05:48:45.153Z,7.57
2023-01-19T05:50:48.788Z,7.80
2023-01-19T05:52:53.268Z,7.80
2023-01-19T05:54:55.382Z,7.73
2023-01-19T05:56:57.803Z,8.23
2023-01-19T05:59:00.241Z,7.17
2023-01-19T06:01:05.659Z,7.33
2023-01-19T06:03:07.618Z,7.97
2023-01-19T06:05:09.928Z,9.67
2023-01-19T06:07:11.800Z,7.93
2023-01-19T06:09:13.741Z,9.73
2023-01-19T06:11:16.016Z,8.93
2023-01-19T06:13:18.054Z,8.90
2023-01-19T06:15:20.071Z,9.40
2023-01-19T06:17:21.896Z,8.77
2023-01-19T06:19:23.690Z,8.97
2023-01-19T06:21:25.520Z,9.70
2023-01-19T06:23:30.950Z,9.83
2023-01-19T06:25:32.637Z,9.70
2023-01-19T06:27:34.529Z,8.77
2023-01-19T06:29:36.646Z,9.10
2023-01-19T06:31:38.579Z,7.57
2023-01-19T06:33:40.346Z,8.93
2023-01-19T06:35:46.440Z,8.20
2023-01-19T06:37:48.349Z,9.80
2023-01-19T06:39:50.098Z,10.20
2023-01-19T06:41:51.976Z,6.97
2023-01-19T06:43:53.955Z,9.30
2023-01-19T06:45:56.655Z,8.83
2023-01-19T06:47:58.735Z,9.67
2023-01-19T06:50:01.961Z,8.53
2023-01-19T06:52:03.931Z,8.60
2023-01-19T06:54:05.801Z,8.17
2023-01-19T06:56:09.602Z,9.27
2023-01-19T06:58:12.305Z,8.57
2023-01-19T07:00:17.974Z,9.50
2023-01-19T07:02:27.455Z,9.97
2023-01-19T07:04:30.601Z,8.90
2023-01-19T07:06:35.505Z,8.80
2023-01-19T07:08:38.374Z,8.30
2023-01-19T07:11:22.362Z,9.53
2023-01-19T07:13:02.704Z,9.00
2023-01-19T07:15:12.060Z,10.03
2023-01-19T07:17:13.781Z,9.87
2023-01-19T07:19:15.847Z,8.30
2023-01-19T07:21:18.587Z,9.00
2023-01-19T07:23:20.481Z,8.50
2023-01-19T07:25:22.469Z,9.80
2023-01-19T07:27:28.276Z,8.77
2023-01-19T07:29:30.287Z,8.17
2023-01-19T07:31:32.250Z,8.93
2023-01-19T07:33:34.116Z,8.53
2023-01-19T07:35:36.371Z,8.30
2023-01-19T07:37:38.328Z,9.63
2023-01-19T07:39:40.156Z,8.23
2023-01-19T07:41:42.175Z,8.10
2023-01-19T07:43:44.059Z,9.77
2023-01-19T07:45:45.884Z,9.63
2023-01-19T07:47:49.128Z,9.77
2023-01-19T07:49:51.211Z,7.83
2023-01-19T07:51:53.040Z,8.37
2023-01-19T07:53:55.000Z,7.80
2023-01-19T07:55:57.682Z,7.83
2023-01-19T07:58:06.696Z,9.17
2023-01-19T08:00:09.203Z,8.80
2023-01-19T08:02:16.240Z,9.03
2023-01-19T08:04:19.442Z,8.10
2023-01-19T08:06:27.960Z,9.57
2023-01-19T08:08:30.515Z,7.97
2023-01-19T08:10:33.342Z,8.40
2023-01-19T08:12:35.338Z,8.23
2023-01-19T08:14:37.501Z,8.30
2023-01-19T08:16:39.417Z,7.73
2023-01-19T08:18:41.415Z,8.03
2023-01-19T08:20:43.253Z,8.30
2023-01-19T08:22:47.628Z,8.17
2023-01-19T08:24:55.185Z,8.97
2023-01-19T08:27:02.052Z,8.97
2023-01-19T08:29:05.657Z,9.73
2023-01-19T08:31:19.523Z,8.03
2023-01-19T08:33:24.325Z,9.97
2023-01-19T08:35:26.005Z,8.87
2023-01-19T08:37:27.986Z,9.23
2023-01-19T08:39:29.856Z,10.37
2023-01-19T08:41:33.148Z,7.77
2023-01-19T08:43:35.464Z,8.70
2023-01-19T08:45:38.751Z,10.13
2023-01-19T08:47:41.506Z,9.47
2023-01-19T08:49:44.303Z,9.67
2023-01-19T08:51:47.238Z,9.73
2023-01-19T08:53:49.035Z,9.10
2023-01-19T08:55:55.289Z,10.83
2023-01-19T08:57:58.211Z,9.50
2023-01-19T09:00:00.132Z,10.33
2023-01-19T09:02:06.210Z,10.40
2023-01-19T09:04:08.101Z,9.10
2023-01-19T09:06:11.083Z,8.87
2023-01-19T09:08:14.176Z,8.67
2023-01-19T09:10:16.738Z,8.57
2023-01-19T09:12:18.562Z,6.85
2023-01-19T09:14:20.287Z,7.20
2023-01-19T09:16:30.921Z,7.50
2023-01-19T09:18:32.802Z,7.53
2023-01-19T09:20:36.331Z,8.77
2023-01-19T09:22:39.739Z,7.27
2023-01-19T09:24:41.443Z,7.47
2023-01-19T09:26:43.207Z,8.07
2023-01-19T09:28:44.922Z,6.63
2023-01-19T09:30:47.201Z,7.00
2023-01-19T09:32:48.874Z,7.27
2023-01-19T09:34:51.241Z,6.17
2023-01-19T09:36:53.369Z,7.33
2023-01-19T09:38:55.072Z,5.93
2023-01-19T09:40:57.340Z,6.40
2023-01-19T09:43:18.176Z,6.90
2023-01-19T09:45:46.196Z,6.65
2023-01-19T09:47:48.712Z,6.25
2023-01-19T09:49:58.936Z,6.63
2023-01-19T09:52:00.781Z,5.83
2023-01-19T09:54:04.313Z,7.15
2023-01-19T09:56:11.316Z,7.45
2023-01-19T09:58:16.522Z,5.75
2023-01-19T10:00:18.934Z,6.60
2023-01-19T10:02:40.896Z,5.63
2023-01-19T10:04:51.652Z,6.40
2023-01-19T10:07:00.075Z,5.93
2023-01-19T10:09:18.713Z,5.45
2023-01-19T10:11:41.843Z,5.80
2023-01-19T10:13:54.740Z,5.22
2023-01-19T10:16:01.738Z,4.95
2023-01-19T10:18:13.703Z,5.80
2023-01-19T10:20:21.941Z,4.47
2023-01-19T10:22:25.619Z,5.00
2023-01-19T10:24:33.405Z,5.60
2023-01-19T10:26:41.537Z,4.45
2023-01-19T10:28:44.003Z,5.75
2023-01-19T10:30:47.063Z,6.00
2023-01-19T10:32:49.207Z,4.45
2023-01-19T10:34:51.740Z,4.55
2023-01-19T10:37:03.224Z,5.22
2023-01-19T10:39:05.973Z,5.13
2023-01-19T10:41:13.635Z,5.03
2023-01-19T10:43:34.134Z,4.10
2023-01-19T10:45:36.898Z,4.55
2023-01-19T10:47:40.144Z,4.72
2023-01-19T10:49:43.265Z,4.60
2023-01-19T10:51:48.037Z,4.30
2023-01-19T10:54:19.326Z,4.85
2023-01-19T10:56:27.587Z,6.22
2023-01-19T10:58:31.160Z,3.85
2023-01-19T11:00:37.987Z,4.45
2023-01-19T11:02:50.116Z,4.05
2023-01-19T11:04:54.197Z,4.22
2023-01-19T11:07:34.064Z,4.22
2023-01-19T11:09:35.759Z,3.22
2023-01-19T11:11:51.379Z,3.55
2023-01-19T11:14:07.044Z,2.80
2023-01-19T11:16:26.425Z,4.07
2023-01-19T11:18:35.758Z,3.10
2023-01-19T11:20:54.674Z,3.67
2023-01-19T11:23:06.648Z,2.90
2023-01-19T11:25:28.347Z,3.55
2023-01-19T11:27:31.655Z,3.00
2023-01-19T11:29:33.449Z,2.80
2023-01-19T11:31:35.956Z,2.80
2023-01-19T11:33:42.967Z,3.45
2023-01-19T11:35:44.770Z,3.20
2023-01-19T11:37:46.530Z,3.63
2023-01-19T11:39:53.349Z,3.33
2023-01-19T11:42:00.814Z,4.35
2023-01-19T11:44:12.201Z,2.42
2023-01-19T11:46:14.623Z,3.78
2023-01-19T11:48:35.441Z,3.92
2023-01-19T11:50:42.955Z,3.60
2023-01-19T11:53:24.493Z,3.45
2023-01-19T11:55:48.824Z,3.50
2023-01-19T11:57:54.215Z,3.63
2023-01-19T11:59:56.569Z,3.78
2023-01-19T12:02:00.775Z,2.40
2023-01-19T12:04:18.120Z,3.03
2023-01-19T12:06:24.259Z,3.00
2023-01-19T12:08:32.579Z,3.65
2023-01-19T12:10:38.604Z,2.83
2023-01-19T12:12:41.177Z,3.45
2023-01-19T12:15:08.278Z,3.50
2023-01-19T12:17:32.523Z,3.03
2023-01-19T12:20:03.782Z,3.55
2023-01-19T12:22:13.688Z,2.38
2023-01-19T12:24:21.347Z,3.10
2023-01-19T12:26:29.831Z,3.03
2023-01-19T12:28:34.533Z,3.83
2023-01-19T12:30:37.007Z,3.80
2023-01-19T12:32:38.933Z,4.00
2023-01-19T12:34:51.969Z,3.88
2023-01-19T12:37:03.169Z,3.60
2023-01-19T12:39:16.546Z,3.92
2023-01-19T12:41:20.836Z,4.07
2023-01-19T12:43:23.678Z,3.22
2023-01-19T12:45:31.630Z,3.85
2023-01-19T12:47:33.857Z,2.83
2023-01-19T12:49:38.627Z,2.85
2023-01-19T12:51:40.451Z,2.75
2023-01-19T12:53:51.646Z,3.47
2023-01-19T12:56:01.256Z,4.03
2023-01-19T12:58:12.996Z,3.17
2023-01-19T13:00:23.871Z,2.90
2023-01-19T13:02:28.820Z,3.65
2023-01-19T13:04:32.493Z,3.15
2023-01-19T13:06:49.648Z,4.43
2023-01-19T13:08:59.723Z,4.07
2023-01-19T13:11:11.458Z,3.45
2023-01-19T13:13:25.950Z,3.00
2023-01-19T13:15:35.096Z,3.92
2023-01-19T13:17:51.641Z,3.08
2023-01-19T13:20:23.146Z,3.53
2023-01-19T13:22:49.751Z,3.00
2023-01-19T13:25:14.463Z,3.10
2023-01-19T13:27:16.636Z,3.35
2023-01-19T13:29:38.194Z,2.42
2023-01-19T13:31:42.983Z,2.88
2023-01-19T13:33:58.723Z,2.70
2023-01-19T13:36:01.139Z,3.30
2023-01-19T13:38:03.710Z,2.55
2023-01-19T13:40:17.686Z,3.42
2023-01-19T13:42:38.563Z,3.47
2023-01-19T13:44:52.576Z,2.63
2023-01-19T13:46:59.861Z,2.65
2023-01-19T13:49:10.892Z,2.38
2023-01-19T13:51:19.131Z,4.85
2023-01-19T13:53:23.839Z,4.43
2023-01-19T13:55:31.184Z,4.13
2023-01-19T13:57:33.799Z,3.47
2023-01-19T13:59:35.578Z,3.50
2023-01-19T14:01:42.789Z,2.72
2023-01-19T14:03:52.194Z,3.22
2023-01-19T14:05:55.140Z,2.78
2023-01-19T14:08:18.159Z,3.22
2023-01-19T14:10:20.011Z,3.13
2023-01-19T14:12:21.769Z,3.53
2023-01-19T14:14:27.414Z,3.30
2023-01-19T14:16:29.457Z,3.28
2023-01-19T14:18:33.209Z,2.47
2023-01-19T14:20:37.235Z,2.67
2023-01-19T14:22:43.129Z,3.70
2023-01-19T14:24:45.017Z,3.10
2023-01-19T14:26:48.633Z,2.65
2023-01-19T14:28:50.347Z,2.47
2023-01-19T14:31:21.328Z,2.33
2023-01-19T14:33:43.714Z,2.72
2023-01-19T14:35:45.513Z,3.40
2023-01-19T14:37:49.762Z,3.40
2023-01-19T14:40:11.071Z,2.10
2023-01-19T14:42:25.730Z,2.85
2023-01-19T14:44:37.431Z,3.03
2023-01-19T14:46:45.882Z,3.65
2023-01-19T14:48:53.507Z,2.75
2023-01-19T14:51:04.040Z,3.13
2023-01-19T14:53:17.363Z,2.83
2023-01-19T14:55:25.252Z,2.55
2023-01-19T14:57:27.052Z,2.13
2023-01-19T14:59:28.791Z,2.40
2023-01-19T15:01:31.354Z,2.35
2023-01-19T15:03:44.082Z,2.15
2023-01-19T15:05:47.365Z,1.85
2023-01-19T15:07:49.024Z,2.35
2023-01-19T15:09:50.905Z,2.53
2023-01-19T15:11:52.927Z,1.98
2023-01-19T15:13:55.728Z,3.25
2023-01-19T15:15:58.519Z,3.00
2023-01-19T15:18:02.073Z,2.72
2023-01-19T15:20:03.941Z,2.63
2023-01-19T15:22:12.820Z,2.33
2023-01-19T15:24:17.543Z,3.03
2023-01-19T15:26:21.919Z,3.50
2023-01-19T15:28:23.591Z,3.40
2023-01-19T15:30:33.765Z,3.15
2023-01-19T15:32:35.609Z,2.75
2023-01-19T15:34:37.307Z,2.70
2023-01-19T15:36:39.236Z,2.65
2023-01-19T15:38:41.031Z,2.35
2023-01-19T15:40:42.974Z,4.70
2023-01-19T15:42:44.848Z,4.28
2023-01-19T15:44:46.828Z,3.42
2023-01-19T15:46:48.469Z,3.35
2023-01-19T15:48:53.528Z,2.95
2023-01-19T15:50:55.236Z,3.60
2023-01-19T15:52:56.968Z,2.88
2023-01-19T15:54:58.882Z,3.28
2023-01-19T15:57:00.517Z,3.55
2023-01-19T15:59:02.301Z,4.82
2023-01-19T16:01:04.045Z,2.95
2023-01-19T16:03:05.866Z,3.78
2023-01-19T16:05:08.331Z,3.33
2023-01-19T16:07:10.217Z,3.15
2023-01-19T16:09:16.831Z,2.75
2023-01-19T16:11:18.807Z,3.85
2023-01-19T16:13:20.697Z,4.32
2023-01-19T16:15:23.700Z,5.32
2023-01-19T16:17:25.429Z,4.15
2023-01-19T16:19:27.153Z,5.07
2023-01-19T16:21:28.901Z,3.83
2023-01-19T16:23:30.717Z,4.85
2023-01-19T16:25:32.518Z,4.85
2023-01-19T16:27:34.247Z,3.63
2023-01-19T16:29:35.945Z,5.63
2023-01-19T16:31:42.357Z,5.88
2023-01-19T16:33:45.351Z,4.57
2023-01-19T16:35:47.258Z,5.47
2023-01-19T16:37:52.121Z,3.92
2023-01-19T16:39:53.893Z,3.25
2023-01-19T16:41:55.664Z,2.80
2023-01-19T16:43:58.438Z,3.25
2023-01-19T16:46:02.657Z,4.13
2023-01-19T16:48:04.619Z,3.85
2023-01-19T16:50:06.877Z,3.70
2023-01-19T16:52:08.646Z,3.45
2023-01-19T16:54:15.019Z,3.28
2023-01-19T16:56:16.989Z,4.85
2023-01-19T16:58:19.453Z,4.13
2023-01-19T17:00:21.563Z,5.35
2023-01-19T17:02:23.309Z,4.53
2023-01-19T17:04:25.243Z,5.45
2023-01-19T17:06:26.990Z,4.88
2023-01-19T17:08:28.663Z,5.57
2023-01-19T17:10:30.373Z,4.82
2023-01-19T17:12:32.364Z,4.93
2023-01-19T17:14:34.295Z,4.63
2023-01-19T17:16:36.421Z,5.35
2023-01-19T17:18:38.325Z,5.53
2023-01-19T17:20:40.113Z,5.63
2023-01-19T17:22:41.954Z,4.60
2023-01-19T17:24:44.718Z,5.05
2023-01-19T17:26:48.772Z,6.32
2023-01-19T17:28:50.749Z,5.03
2023-01-19T17:30:52.888Z,5.40
2023-01-19T17:32:54.610Z,6.28
2023-01-19T17:34:56.406Z,4.80
2023-01-19T17:37:03.091Z,5.60
2023-01-19T17:39:07.383Z,6.65
2023-01-19T17:41:12.540Z,6.10
2023-01-19T17:43:14.221Z,7.32
2023-01-19T17:45:16.045Z,6.22
2023-01-19T17:47:17.922Z,6.47
2023-01-19T17:49:19.628Z,6.15
2023-01-19T17:51:23.158Z,7.32
2023-01-19T17:53:24.837Z,9.52
2023-01-19T17:55:26.599Z,14.40
2023-01-19T17:57:28.366Z,14.98
2023-01-19T17:59:30.280Z,15.40
2023-01-19T18:01:33.780Z,13.80
2023-01-19T18:03:35.943Z,13.70
2023-01-19T18:05:37.762Z,17.10
2023-01-19T18:07:40.188Z,19.30
2023-01-19T18:09:41.954Z,18.35
2023-01-19T18:11:43.717Z,16.20
2023-01-19T18:13:46.883Z,15.30
2023-01-19T18:15:48.788Z,15.77
2023-01-19T18:17:50.525Z,12.40
2023-01-19T18:19:52.257Z,11.50
2023-01-19T18:21:53.969Z,9.98
2023-01-19T18:24:03.044Z,11.80
2023-01-19T18:26:07.440Z,7.75
2023-01-19T18:28:09.455Z,9.30
2023-01-19T18:30:11.812Z,6.95
2023-01-19T18:32:13.654Z,8.30
2023-01-19T18:34:15.360Z,6.95
2023-01-19T18:36:17.922Z,6.85
2023-01-19T18:38:19.885Z,6.43
2023-01-19T18:40:21.598Z,6.85
2023-01-19T18:42:23.269Z,6.25
2023-01-19T18:44:25.109Z,5.55
2023-01-19T18:46:27.585Z,5.53
2023-01-19T18:48:29.575Z,6.00
2023-01-19T18:50:31.890Z,6.28
2023-01-19T18:52:33.783Z,5.70
2023-01-19T18:54:35.532Z,5.30
2023-01-19T18:56:37.240Z,6.55
2023-01-19T18:58:39.645Z,5.75
2023-01-19T19:00:41.373Z,5.72
2023-01-19T19:02:43.192Z,5.10
2023-01-19T19:05:03.224Z,5.53
2023-01-19T19:07:20.765Z,5.07
2023-01-19T19:09:22.433Z,7.88
2023-01-19T19:11:25.221Z,7.15
2023-01-19T19:13:26.924Z,5.63
2023-01-19T19:15:28.765Z,7.63
2023-01-19T19:17:30.508Z,11.05
2023-01-19T19:19:32.381Z,8.80
2023-01-19T19:21:34.207Z,7.47
2023-01-19T19:23:36.852Z,7.72
2023-01-19T19:25:39.266Z,5.70
2023-01-19T19:27:43.539Z,6.28
2023-01-19T19:29:48.940Z,7.20
2023-01-19T19:31:50.726Z,6.50
2023-01-19T19:33:52.477Z,6.75
2023-01-19T19:35:57.209Z,5.75
2023-01-19T19:37:59.021Z,6.00
2023-01-19T19:40:00.858Z,6.03
2023-01-19T19:42:02.580Z,4.93
2023-01-19T19:44:04.474Z,4.68
2023-01-19T19:46:08.620Z,5.00
2023-01-19T19:48:10.355Z,5.63
2023-01-19T19:50:12.790Z,5.68
2023-01-19T19:52:14.592Z,4.40
2023-01-19T19:54:16.265Z,5.20
2023-01-19T19:56:21.263Z,5.32
2023-01-19T19:58:23.968Z,4.72
2023-01-19T20:00:25.814Z,4.68
2023-01-19T20:02:27.651Z,5.25
2023-01-19T20:04:29.474Z,5.10
2023-01-19T20:06:36.408Z,4.47
2023-01-19T20:08:38.218Z,4.43
2023-01-19T20:10:40.043Z,4.45
2023-01-19T20:12:41.856Z,4.85
2023-01-19T20:14:43.711Z,4.57
2023-01-19T20:16:45.626Z,4.05
2023-01-19T20:18:50.919Z,4.28
2023-01-19T20:20:52.692Z,5.15
2023-01-19T20:22:54.436Z,4.35
2023-01-19T20:24:56.305Z,3.38
2023-01-19T20:26:58.062Z,4.90
2023-01-19T20:29:06.983Z,4.63
2023-01-19T20:31:17.285Z,5.53
2023-01-19T20:33:19.077Z,4.13
2023-01-19T20:35:20.854Z,5.22
2023-01-19T20:37:22.719Z,6.35
2023-01-19T20:39:25.186Z,5.07
2023-01-19T20:41:27.589Z,4.28
2023-01-19T20:43:30.020Z,4.57
2023-01-19T20:45:32.496Z,5.15
2023-01-19T20:47:34.275Z,4.13
2023-01-19T20:49:37.023Z,4.65
2023-01-19T20:51:43.386Z,4.78
2023-01-19T20:53:45.209Z,5.40
2023-01-19T20:55:46.946Z,4.53
2023-01-19T20:57:48.634Z,4.78
2023-01-19T20:59:50.362Z,5.60
2023-01-19T21:01:52.745Z,4.97
2023-01-19T21:03:54.563Z,5.00
2023-01-19T21:05:59.365Z,4.72
2023-01-19T21:08:01.191Z,4.50
2023-01-19T21:10:03.686Z,4.50
2023-01-19T21:12:07.945Z,4.47
2023-01-19T21:14:09.677Z,4.28
2023-01-19T21:16:11.685Z,4.53
2023-01-19T21:18:13.371Z,5.13
2023-01-19T21:20:15.119Z,5.13
2023-01-19T21:22:16.865Z,5.05
2023-01-19T21:24:18.581Z,5.22
2023-01-19T21:26:20.340Z,5.00
2023-01-19T21:28:25.199Z,5.00
2023-01-19T21:30:26.946Z,5.00
2023-01-19T21:32:29.564Z,4.20
2023-01-19T21:34:31.266Z,4.93
2023-01-19T21:36:33.171Z,4.53
2023-01-19T21:38:36.381Z,4.45
2023-01-19T21:40:38.131Z,3.90
2023-01-19T21:42:40.735Z,4.22
2023-01-19T21:44:42.669Z,4.63
2023-01-19T21:46:44.531Z,4.70
2023-01-19T21:48:46.454Z,4.53
2023-01-19T21:50:56.788Z,3.92
2023-01-19T21:52:58.483Z,5.25
2023-01-19T21:55:00.243Z,4.63
2023-01-19T21:57:02.920Z,4.78
2023-01-19T21:59:05.202Z,4.32
2023-01-19T22:01:13.878Z,6.60
2023-01-19T22:03:16.453Z,7.55
2023-01-19T22:05:18.292Z,11.45
2023-01-19T22:07:20.057Z,11.02
2023-01-19T22:09:21.765Z,10.98
2023-01-19T22:11:23.732Z,8.73
2023-01-19T22:13:25.373Z,10.02
2023-01-19T22:15:27.067Z,10.43
2023-01-19T22:17:29.001Z,11.27
2023-01-19T22:19:30.848Z,10.70
2023-01-19T22:21:35.846Z,9.65
2023-01-19T22:23:37.768Z,9.90
2023-01-19T22:25:39.479Z,7.55
2023-01-19T22:27:41.229Z,7.05
2023-01-19T22:29:43.259Z,5.63
2023-01-19T22:31:45.892Z,6.45
2023-01-19T22:33:49.211Z,4.75
2023-01-19T22:35:50.969Z,5.38
2023-01-19T22:37:52.769Z,5.63
2023-01-19T22:39:54.486Z,5.63
2023-01-19T22:41:56.163Z,3.90
2023-01-19T22:44:00.258Z,5.28
2023-01-19T22:46:02.834Z,4.80
2023-01-19T22:48:06.079Z,4.78
2023-01-19T22:50:08.794Z,4.47
2023-01-19T22:52:10.524Z,3.83
2023-01-19T22:54:12.637Z,4.90
2023-01-19T22:56:15.995Z,4.18
2023-01-19T22:58:17.664Z,4.10
2023-01-19T23:00:20.166Z,5.00
2023-01-19T23:02:21.918Z,4.55
2023-01-19T23:04:23.742Z,4.75
2023-01-19T23:06:30.632Z,3.88
2023-01-19T23:08:32.728Z,4.93
2023-01-19T23:10:35.076Z,4.72
2023-01-19T23:12:36.920Z,3.70
2023-01-19T23:14:38.708Z,4.47
2023-01-19T23:16:40.556Z,4.03
2023-01-19T23:18:42.923Z,3.35
2023-01-19T23:20:44.629Z,4.18
2023-01-19T23:22:46.304Z,3.95
2023-01-19T23:24:47.998Z,4.93
2023-01-19T23:26:50.713Z,4.50
2023-01-19T23:28:59.992Z,5.25
2023-01-19T23:31:01.922Z,4.13
2023-01-19T23:33:03.895Z,4.57
2023-01-19T23:35:05.993Z,4.53
2023-01-19T23:37:07.763Z,4.75
2023-01-19T23:39:18.637Z,4.80
2023-01-19T23:41:21.472Z,6.72
2023-01-19T23:43:23.256Z,4.75
2023-01-19T23:45:25.017Z,5.03
2023-01-19T23:47:26.717Z,5.30
2023-01-19T23:49:28.532Z,5.28
2023-01-19T23:51:32.436Z,4.67
2023-01-19T23:53:34.774Z,4.80
2023-01-19T23:55:36.537Z,6.13
2023-01-19T23:57:38.195Z,5.07
2023-01-19T23:59:39.970Z,5.10
